Time;durP1;ratioP1;P1;durP2;ratioP2;P2;SDS_P1;SDS_P2;PMS_P1;PMS_P2;Temp;Humidity;BMP_temperature;BMP_pressure;BME280_temperature;BME280_humidity;BME280_pressure;Samples;Min_cycle;Max_cycle;Signal;HPM_P1;HPM_P2
2023/09/05 00:00:13;;;;;;;0.10;0.10;;;;;;;19.26;94.27;100366.50;5085146;28;20051;-60
2023/09/05 00:02:40;;;;;;;0.20;0.20;;;;;;;19.28;94.39;100369.09;5085944;28;20368;-60
2023/09/05 00:05:07;;;;;;;0.10;0.10;;;;;;;19.31;94.14;100368.94;5086938;28;20028;-61
2023/09/05 00:07:37;;;;;;;0.10;0.10;;;;;;;19.26;94.69;100371.03;5086626;28;20062;-60
2023/09/05 00:10:10;;;;;;;0.20;0.20;;;;;;;19.21;94.58;100383.94;5086745;28;20056;-60
2023/09/05 00:12:36;;;;;;;;;;;;;;;19.20;94.95;100376.81;5085741;28;20035;-60
2023/09/05 00:15:02;;;;;;;0.10;0.10;;;;;;;19.18;95.20;100360.72;5086729;28;20231;-61
2023/09/05 00:17:27;;;;;;;0.10;0.10;;;;;;;19.19;94.77;100364.31;5086234;28;20024;-61
2023/09/05 00:19:55;;;;;;;0.10;0.10;;;;;;;19.17;94.94;100366.22;5085223;28;20024;-60
2023/09/05 00:22:21;;;;;;;0.20;0.20;;;;;;;19.20;95.33;100371.41;5085504;28;20030;-61
2023/09/05 00:24:48;;;;;;;0.10;0.10;;;;;;;19.22;95.08;100377.59;5084380;28;20032;-61
2023/09/05 00:27:13;;;;;;;0.20;0.20;;;;;;;19.24;95.09;100379.22;5085919;28;20597;-61
2023/09/05 00:29:40;;;;;;;0.10;0.10;;;;;;;19.25;94.79;100372.00;5084161;28;20032;-60
2023/09/05 00:32:06;;;;;;;0.13;0.13;;;;;;;19.22;95.07;100374.91;5084746;28;20560;-60
2023/09/05 00:34:33;;;;;;;0.20;0.20;;;;;;;19.15;94.78;100371.72;5085294;28;20052;-61
2023/09/05 00:37:03;;;;;;;0.10;0.10;;;;;;;19.04;95.25;100359.84;5085435;28;20024;-61
2023/09/05 00:39:30;;;;;;;0.20;0.20;;;;;;;19.02;95.23;100359.06;5086146;28;20023;-60
2023/09/05 00:41:56;;;;;;;0.10;0.10;;;;;;;18.98;96.19;100357.50;5090356;28;20057;-60
2023/09/05 00:44:23;;;;;;;0.10;0.10;;;;;;;18.94;96.09;100361.38;5089514;28;20499;-61
2023/09/05 00:46:49;;;;;;;0.10;0.10;;;;;;;18.96;95.91;100363.00;5076709;28;20066;-61
2023/09/05 00:49:16;;;;;;;0.10;0.10;;;;;;;19.02;95.50;100369.84;5090266;28;20067;-60
2023/09/05 00:51:43;;;;;;;0.10;0.10;;;;;;;19.02;95.40;100372.56;5087724;28;20594;-61
2023/09/05 00:54:10;;;;;;;0.10;0.10;;;;;;;18.98;95.85;100366.47;5087394;28;20046;-60
2023/09/05 00:56:36;;;;;;;0.10;0.10;;;;;;;18.99;96.26;100367.34;5088875;28;20075;-59
2023/09/05 00:59:05;;;;;;;0.10;0.10;;;;;;;18.95;96.21;100371.19;5089880;28;20027;-60
2023/09/05 01:01:30;;;;;;;0.20;0.20;;;;;;;18.88;96.49;100364.47;5088689;28;20072;-60
2023/09/05 01:03:57;;;;;;;0.20;0.20;;;;;;;18.79;97.00;100365.88;5088965;28;20032;-60
2023/09/05 01:06:51;;;;;;;0.10;0.10;;;;;;;18.70;97.33;100365.56;5087431;28;20243;-60
2023/09/05 01:09:44;;;;;;;0.20;0.20;;;;;;;18.58;97.61;100352.81;5020732;28;20048;-61
2023/09/05 01:12:10;;;;;;;0.20;0.20;;;;;;;18.54;97.93;100359.34;5047389;28;20300;-60
2023/09/05 01:14:35;;;;;;;0.10;0.10;;;;;;;18.50;98.63;100355.13;5047047;28;20493;-61
2023/09/05 01:17:01;;;;;;;0.10;0.10;;;;;;;18.46;98.53;100364.31;5056162;28;20580;-61
2023/09/05 01:19:29;;;;;;;0.20;0.20;;;;;;;18.40;99.28;100367.38;5048625;28;20378;-60
2023/09/05 01:22:15;;;;;;;0.10;0.10;;;;;;;18.36;99.93;100364.84;5054015;28;20790;-61
2023/09/05 01:24:41;;;;;;;0.20;0.20;;;;;;;18.37;99.90;100357.59;5067809;28;20088;-61
2023/09/05 01:27:17;;;;;;;0.10;0.10;;;;;;;18.35;100.00;100357.69;5068093;28;20451;-61
2023/09/05 01:29:44;;;;;;;0.10;0.10;;;;;;;18.32;100.00;100352.50;5068223;28;20036;-60
2023/09/05 01:32:10;;;;;;;0.10;0.10;;;;;;;18.35;100.00;100360.41;5068278;28;20032;-60
2023/09/05 01:34:36;;;;;;;0.20;0.20;;;;;;;18.34;100.00;100357.78;5067258;28;20055;-61
2023/09/05 01:37:01;;;;;;;0.20;0.20;;;;;;;18.31;100.00;100345.41;5066120;28;20024;-61
2023/09/05 01:39:26;;;;;;;0.20;0.20;;;;;;;18.27;100.00;100346.53;5067367;28;20481;-60
2023/09/05 01:41:52;;;;;;;0.20;0.20;;;;;;;18.26;100.00;100350.19;5067076;28;20432;-60
2023/09/05 01:44:18;;;;;;;0.20;0.20;;;;;;;18.23;100.00;100353.06;5067183;28;20025;-61
2023/09/05 01:46:44;;;;;;;0.20;0.20;;;;;;;18.19;100.00;100353.31;5066839;28;20387;-60
2023/09/05 01:49:09;;;;;;;0.20;0.20;;;;;;;18.16;100.00;100351.66;5066054;28;20484;-61
2023/09/05 01:51:35;;;;;;;0.20;0.20;;;;;;;18.16;100.00;100354.38;5051948;28;20020;-61
2023/09/05 01:54:00;;;;;;;0.20;0.20;;;;;;;18.12;100.00;100347.41;5069185;28;20557;-60
2023/09/05 01:56:26;;;;;;;0.20;0.20;;;;;;;18.09;100.00;100350.28;5067670;28;20094;-61
2023/09/05 01:58:51;;;;;;;0.10;0.10;;;;;;;18.09;100.00;100346.72;5068201;28;20503;-60
2023/09/05 02:01:17;;;;;;;0.20;0.20;;;;;;;18.04;100.00;100347.00;5068685;28;20037;-61
2023/09/05 02:03:42;;;;;;;0.20;0.20;;;;;;;18.06;100.00;100342.38;5067649;28;20372;-60
2023/09/05 02:06:08;;;;;;;0.20;0.20;;;;;;;18.05;100.00;100346.06;5068547;28;20016;-61
2023/09/05 02:08:36;;;;;;;0.20;0.20;;;;;;;18.05;100.00;100346.06;5074579;28;20048;-61
2023/09/05 02:11:02;;;;;;;0.20;0.20;;;;;;;18.04;100.00;100338.91;5088342;28;20085;-61
2023/09/05 02:13:31;;;;;;;0.10;0.10;;;;;;;18.00;100.00;100345.44;5087446;28;20032;-61
2023/09/05 02:15:56;;;;;;;0.20;0.20;;;;;;;18.02;100.00;100350.75;5089087;28;20031;-61
2023/09/05 02:18:22;;;;;;;0.20;0.20;;;;;;;18.03;100.00;100347.97;5087360;28;20035;-60
2023/09/05 02:20:47;;;;;;;0.10;0.10;;;;;;;18.03;100.00;100356.03;5088627;28;20435;-61
2023/09/05 02:23:12;;;;;;;0.10;0.10;;;;;;;18.02;100.00;100351.59;5086156;28;20104;-61
2023/09/05 02:25:38;;;;;;;0.20;0.20;;;;;;;17.98;100.00;100351.84;5086011;28;20107;-61
2023/09/05 02:28:04;;;;;;;0.20;0.20;;;;;;;17.93;100.00;100352.13;5086997;28;20096;-61
2023/09/05 02:30:30;;;;;;;0.13;0.13;;;;;;;17.89;100.00;100350.56;5086500;28;20039;-61
2023/09/05 02:32:56;;;;;;;0.20;0.20;;;;;;;17.87;100.00;100349.81;5085255;28;20509;-61
2023/09/05 02:35:23;;;;;;;0.10;0.10;;;;;;;17.90;100.00;100346.94;5086249;28;20035;-61
2023/09/05 02:37:53;;;;;;;0.20;0.20;;;;;;;17.88;100.00;100343.44;5086520;28;20024;-61
2023/09/05 02:40:19;;;;;;;0.20;0.20;;;;;;;17.85;100.00;100342.75;5084864;28;20035;-61
2023/09/05 02:42:45;;;;;;;0.20;0.20;;;;;;;17.87;100.00;100351.63;5086822;28;20032;-62
2023/09/05 02:45:11;;;;;;;0.20;0.20;;;;;;;17.86;100.00;100352.56;5086535;28;20024;-62
2023/09/05 02:47:37;;;;;;;0.20;0.20;;;;;;;17.84;100.00;100362.56;5085557;28;20024;-61
2023/09/05 02:50:03;;;;;;;0.20;0.20;;;;;;;17.78;100.00;100357.50;5084159;28;20034;-61
2023/09/05 02:52:29;;;;;;;0.17;0.17;;;;;;;17.78;100.00;100357.50;5082517;28;20514;-60
2023/09/05 02:54:55;;;;;;;0.20;0.20;;;;;;;17.74;100.00;100361.34;5085505;28;20369;-61
2023/09/05 02:57:21;;;;;;;0.20;0.20;;;;;;;17.69;100.00;100344.59;5086674;28;20043;-61
2023/09/05 02:59:47;;;;;;;0.20;0.20;;;;;;;17.64;100.00;100355.63;5085300;28;20051;-59
2023/09/05 03:02:12;;;;;;;0.20;0.20;;;;;;;17.60;100.00;100358.53;5085851;28;20459;-61
2023/09/05 03:04:38;;;;;;;0.20;0.20;;;;;;;17.59;100.00;100355.00;5086866;28;20107;-61
2023/09/05 03:07:03;;;;;;;0.20;0.20;;;;;;;17.53;100.00;100347.25;5086434;28;20089;-61
2023/09/05 03:09:29;;;;;;;0.20;0.20;;;;;;;17.46;100.00;100348.53;5086118;28;20044;-61
2023/09/05 03:11:55;;;;;;;0.20;0.20;;;;;;;17.45;100.00;100353.97;5087716;28;20034;-62
2023/09/05 03:14:21;;;;;;;0.20;0.20;;;;;;;17.39;100.00;100360.56;5082484;28;20507;-61
2023/09/05 03:16:46;;;;;;;0.10;0.10;;;;;;;17.35;100.00;100353.59;5087293;28;20409;-61
2023/09/05 03:19:12;;;;;;;0.20;0.20;;;;;;;17.34;100.00;100359.97;5087109;28;20042;-61
2023/09/05 03:21:40;;;;;;;0.20;0.20;;;;;;;17.30;100.00;100354.84;5086879;28;20126;-61
2023/09/05 03:24:06;;;;;;;0.20;0.20;;;;;;;17.23;100.00;100351.63;5085287;28;20107;-62
2023/09/05 03:26:31;;;;;;;0.20;0.20;;;;;;;17.21;100.00;100361.56;5085854;28;20131;-61
2023/09/05 03:28:59;;;;;;;0.20;0.20;;;;;;;17.13;100.00;100370.03;5085145;28;20467;-62
2023/09/05 03:31:27;;;;;;;0.20;0.20;;;;;;;17.04;100.00;100367.84;5084760;28;20340;-62
2023/09/05 03:33:53;;;;;;;0.20;0.20;;;;;;;17.02;100.00;100379.63;5085683;28;20134;-61
2023/09/05 03:36:19;;;;;;;0.20;0.20;;;;;;;16.96;100.00;100370.09;5085815;28;20448;-62
2023/09/05 03:38:44;;;;;;;0.20;0.20;;;;;;;16.93;100.00;100372.06;5085166;28;20099;-61
2023/09/05 03:41:10;;;;;;;0.20;0.20;;;;;;;16.95;100.00;100376.38;5075941;28;20016;-62
2023/09/05 03:43:35;;;;;;;0.20;0.20;;;;;;;16.93;100.00;100372.06;5065489;28;20052;-62
2023/09/05 03:46:00;;;;;;;0.20;0.20;;;;;;;16.87;100.00;100377.72;5063901;28;20166;-62
2023/09/05 03:48:26;;;;;;;0.20;0.20;;;;;;;16.86;100.00;100370.63;5072115;28;20028;-62
2023/09/05 03:50:51;;;;;;;0.20;0.20;;;;;;;16.85;100.00;100379.66;5084315;28;20039;-62
2023/09/05 03:53:17;;;;;;;0.20;0.20;;;;;;;16.82;100.00;100380.69;5084329;28;20020;-61
2023/09/05 03:55:43;;;;;;;0.30;0.30;;;;;;;16.86;100.00;100376.00;5084111;28;20792;-62
2023/09/05 03:58:08;;;;;;;0.20;0.20;;;;;;;16.86;100.00;100371.53;5084201;28;20031;-61
2023/09/05 04:00:34;;;;;;;0.20;0.20;;;;;;;16.85;100.00;100368.91;5087052;28;20020;-62
2023/09/05 04:03:04;;;;;;;0.20;0.20;;;;;;;16.85;100.00;100363.53;5086783;28;20452;-62
2023/09/05 04:05:32;;;;;;;0.20;0.20;;;;;;;16.83;100.00;100377.06;5087079;28;20058;-62
2023/09/05 04:07:57;;;;;;;0.20;0.20;;;;;;;16.82;100.00;100371.72;5084933;28;20027;-62
2023/09/05 04:10:23;;;;;;;0.30;0.30;;;;;;;16.83;100.00;100384.25;5087071;28;20077;-61
2023/09/05 04:12:50;;;;;;;0.20;0.20;;;;;;;16.83;100.00;100381.56;5087166;28;20032;-62
2023/09/05 04:15:20;;;;;;;0.20;0.20;;;;;;;16.88;100.00;100379.50;5088854;28;20103;-62
2023/09/05 04:17:46;;;;;;;0.20;0.20;;;;;;;16.88;100.00;100387.56;5090767;28;20154;-61
2023/09/05 04:20:15;;;;;;;0.20;0.20;;;;;;;16.87;100.00;100394.75;5088485;28;20027;-62
2023/09/05 04:22:40;;;;;;;0.20;0.20;;;;;;;16.89;100.00;100391.97;5089120;28;20044;-61
2023/09/05 04:25:06;;;;;;;0.20;0.20;;;;;;;16.88;100.00;100399.19;5088230;28;20078;-62
2023/09/05 04:27:32;;;;;;;0.20;0.20;;;;;;;16.83;100.00;100403.94;5088681;28;20028;-62
2023/09/05 04:29:58;;;;;;;0.20;0.20;;;;;;;16.85;100.00;100406.53;5087871;28;20047;-62
2023/09/05 04:32:32;;;;;;;0.22;0.22;;;;;;;16.90;100.00;100415.22;5079475;28;20118;-62
2023/09/05 04:35:00;;;;;;;0.20;0.20;;;;;;;16.88;100.00;100409.06;5084564;28;20034;-61
2023/09/05 04:37:26;;;;;;;0.20;0.20;;;;;;;16.81;100.00;100407.63;5090776;28;20085;-62
2023/09/05 04:39:52;;;;;;;0.20;0.20;;;;;;;16.80;100.00;100411.28;5089618;28;20027;-61
2023/09/05 04:42:18;;;;;;;0.20;0.20;;;;;;;16.80;100.00;100405.91;5090341;28;20084;-62
2023/09/05 04:44:44;;;;;;;0.20;0.20;;;;;;;16.82;100.00;100412.03;5087191;28;20512;-62
2023/09/05 04:47:21;;;;;;;0.20;0.20;;;;;;;16.87;100.00;100415.34;5090411;28;20046;-61
2023/09/05 04:49:51;;;;;;;0.30;0.30;;;;;;;16.89;100.00;100418.84;5084890;28;20493;-62
2023/09/05 04:52:18;;;;;;;0.20;0.20;;;;;;;16.90;100.00;100417.91;5082022;28;20476;-62
2023/09/05 04:54:43;;;;;;;0.20;0.20;;;;;;;16.88;100.00;100415.31;5085760;28;20028;-62
2023/09/05 04:57:10;;;;;;;0.20;0.20;;;;;;;16.86;100.00;100430.63;5086981;28;20027;-62
2023/09/05 04:59:39;;;;;;;0.20;0.20;;;;;;;16.81;100.00;100429.13;5088259;28;20027;-61
2023/09/05 05:02:04;;;;;;;0.20;0.20;;;;;;;16.80;100.00;100430.06;5088150;28;20589;-61
2023/09/05 05:04:30;;;;;;;0.20;0.20;;;;;;;16.76;100.00;100439.22;5088821;28;20016;-61
2023/09/05 05:06:56;;;;;;;0.30;0.30;;;;;;;16.74;100.00;100442.00;5088007;28;20024;-61
2023/09/05 05:09:21;;;;;;;0.20;0.20;;;;;;;16.76;99.99;100442.78;5080288;28;20108;-62
2023/09/05 05:11:47;;;;;;;0.30;0.30;;;;;;;16.75;100.00;100450.94;5087285;28;20028;-61
2023/09/05 05:14:12;;;;;;;0.20;0.20;;;;;;;16.73;100.00;100450.13;5086823;28;20107;-62
2023/09/05 05:16:38;;;;;;;0.20;0.20;;;;;;;16.74;100.00;100457.22;5085861;28;20077;-61
2023/09/05 05:19:04;;;;;;;0.20;0.20;;;;;;;16.75;100.00;100454.47;5088776;28;20107;-61
2023/09/05 05:21:30;;;;;;;0.30;0.30;;;;;;;16.75;100.00;100459.00;5088722;28;20392;-62
2023/09/05 05:23:55;;;;;;;0.20;0.20;;;;;;;16.73;100.00;100466.25;5089613;28;20028;-61
2023/09/05 05:26:21;;;;;;;0.20;0.20;;;;;;;16.75;100.00;100469.75;5088196;28;20047;-61
2023/09/05 05:28:46;;;;;;;0.20;0.20;;;;;;;16.71;100.00;100465.44;5086056;28;20154;-62
2023/09/05 05:31:14;;;;;;;0.30;0.30;;;;;;;16.67;100.00;100456.69;5089296;28;20111;-61
2023/09/05 05:33:40;;;;;;;0.20;0.20;;;;;;;16.77;100.00;100463.31;5088544;28;20501;-61
2023/09/05 05:36:05;;;;;;;0.20;0.20;;;;;;;16.81;100.00;100469.41;5088321;28;20023;-62
2023/09/05 05:38:31;;;;;;;0.20;0.20;;;;;;;16.84;100.00;100469.25;5089145;28;20024;-61
2023/09/05 05:40:57;;;;;;;0.20;0.20;;;;;;;16.90;100.00;100468.97;5089341;28;20032;-62
2023/09/05 05:43:24;;;;;;;0.20;0.20;;;;;;;16.98;100.00;100467.59;5088399;28;20028;-62
2023/09/05 05:45:51;;;;;;;0.20;0.20;;;;;;;17.09;100.00;100464.38;5088733;28;20058;-61
2023/09/05 05:48:16;;;;;;;0.20;0.20;;;;;;;17.16;100.00;100471.19;5089214;28;20389;-61
2023/09/05 05:50:42;;;;;;;0.20;0.20;;;;;;;17.27;100.00;100468.78;5087683;28;20034;-61
2023/09/05 05:53:07;;;;;;;0.20;0.20;;;;;;;17.36;100.00;100472.81;5089269;28;20426;-61
2023/09/05 05:55:33;;;;;;;0.20;0.20;;;;;;;17.45;100.00;100473.22;5085184;28;20064;-61
2023/09/05 05:57:58;;;;;;;0.20;0.20;;;;;;;17.55;100.00;100478.97;5089087;28;20046;-62
2023/09/05 06:00:25;;;;;;;0.20;0.20;;;;;;;17.67;100.00;100468.44;5088371;28;20024;-62
2023/09/05 06:02:51;;;;;;;0.10;0.10;;;;;;;17.77;100.00;100463.41;5088606;28;20085;-61
2023/09/05 06:05:16;;;;;;;0.20;0.20;;;;;;;17.96;100.00;100474.88;5086614;28;20016;-62
2023/09/05 06:07:42;;;;;;;0.20;0.20;;;;;;;18.09;99.38;100468.75;5087677;28;20024;-62
2023/09/05 06:10:08;;;;;;;0.20;0.20;;;;;;;18.23;98.93;100474.25;5086767;28;20551;-61
2023/09/05 06:12:33;;;;;;;0.20;0.20;;;;;;;18.37;97.40;100478.81;5087117;28;20043;-62
2023/09/05 06:14:59;;;;;;;0.20;0.20;;;;;;;18.53;95.04;100471.66;5086952;28;20412;-61
2023/09/05 06:17:25;;;;;;;0.20;0.20;;;;;;;18.68;93.88;100470.72;5066695;28;20028;-62
2023/09/05 06:19:50;;;;;;;0.20;0.20;;;;;;;18.89;93.64;100474.00;5078050;28;20035;-61
2023/09/05 06:22:17;;;;;;;0.20;0.20;;;;;;;19.10;91.80;100472.72;5086790;28;20087;-61
2023/09/05 06:24:42;;;;;;;0.10;0.10;;;;;;;19.48;91.19;100474.00;5086379;28;20048;-62
2023/09/05 06:27:10;;;;;;;0.20;0.20;;;;;;;19.99;87.69;100469.84;5087799;28;20494;-62
2023/09/05 06:29:35;;;;;;;0.20;0.20;;;;;;;20.33;85.52;100478.41;5088358;28;20062;-61
2023/09/05 06:32:01;;;;;;;0.13;0.13;;;;;;;20.80;82.63;100478.84;5086112;28;20112;-61
2023/09/05 06:34:26;;;;;;;0.10;0.10;;;;;;;20.95;80.33;100475.09;5088088;28;20148;-62
2023/09/05 06:36:53;;;;;;;0.10;0.10;;;;;;;21.04;78.89;100472.78;5086356;28;20015;-61
2023/09/05 06:39:18;;;;;;;0.10;0.10;;;;;;;21.40;77.24;100470.25;5088104;28;20098;-61
2023/09/05 06:41:44;;;;;;;0.10;0.10;;;;;;;22.05;75.20;100480.88;5088886;28;20040;-61
2023/09/05 06:44:09;;;;;;;0.10;0.10;;;;;;;22.61;70.52;100468.59;5079995;28;20024;-61
2023/09/05 06:46:35;;;;;;;0.10;0.10;;;;;;;22.96;68.90;100479.50;5071519;28;20106;-61
2023/09/05 06:49:02;;;;;;;0.13;0.13;;;;;;;24.22;66.34;100480.28;5084455;28;20136;-61
2023/09/05 06:51:29;;;;;;;0.10;0.10;;;;;;;25.00;60.39;100478.28;5070806;28;20453;-61
2023/09/05 06:53:55;;;;;;;0.10;0.10;;;;;;;24.94;58.39;100477.94;5068662;28;20020;-61
2023/09/05 06:56:20;;;;;;;0.13;0.13;;;;;;;24.92;58.21;100480.78;5077959;28;20024;-61
2023/09/05 06:58:47;;;;;;;0.10;0.10;;;;;;;24.82;59.83;100479.84;5086585;28;20024;-61
2023/09/05 07:01:13;;;;;;;0.10;0.10;;;;;;;25.15;59.38;100490.59;5086847;28;20331;-61
2023/09/05 07:03:38;;;;;;;0.10;0.10;;;;;;;25.14;57.59;100485.28;5084701;28;20103;-61
2023/09/05 07:06:04;;;;;;;0.10;0.10;;;;;;;25.07;58.42;100487.66;5084277;28;20119;-61
2023/09/05 07:08:31;;;;;;;0.10;0.10;;;;;;;25.18;58.68;100484.88;5066582;28;20157;-61
2023/09/05 07:10:56;;;;;;;0.10;0.10;;;;;;;25.27;58.12;100480.50;5047124;28;20024;-60
2023/09/05 07:13:22;;;;;;;0.10;0.10;;;;;;;25.57;58.44;100489.66;5052280;28;20031;-61
2023/09/05 07:15:47;;;;;;;0.08;0.08;;;;;;;26.03;56.30;100485.66;5051189;28;20025;-61
2023/09/05 07:18:13;;;;;;;0.10;0.10;;;;;;;26.59;54.68;100478.69;5045561;28;20043;-61
2023/09/05 07:20:39;;;;;;;0.08;0.08;;;;;;;27.20;51.07;100491.09;5045979;28;20185;-62
2023/09/05 07:23:04;;;;;;;0.10;0.10;;;;;;;27.73;49.31;100478.72;5057493;28;20108;-62
2023/09/05 07:25:30;;;;;;;0.10;0.10;;;;;;;28.34;48.02;100482.69;5050324;28;20017;-61
2023/09/05 07:27:55;;;;;;;0.05;0.05;;;;;;;28.23;45.92;100491.13;5048562;28;20915;-61
2023/09/05 07:30:21;;;;;;;0.10;0.10;;;;;;;28.32;47.44;100481.13;5046064;28;20032;-61
2023/09/05 07:32:46;;;;;;;0.10;0.10;;;;;;;28.72;45.91;100478.03;5058946;28;20039;-61
2023/09/05 07:35:11;;;;;;;0.10;0.10;;;;;;;29.05;46.24;100480.13;5065161;28;20445;-61
2023/09/05 07:37:38;;;;;;;0.10;0.10;;;;;;;29.20;45.83;100490.41;5064953;28;20107;-61
2023/09/05 07:40:05;;;;;;;0.10;0.10;;;;;;;29.31;44.88;100481.06;5065571;28;20123;-61
2023/09/05 07:42:31;;;;;;;0.10;0.10;;;;;;;29.29;45.13;100486.72;5065796;28;20032;-61
2023/09/05 07:44:56;;;;;;;0.00;0.00;;;;;;;29.36;44.80;100485.06;5064822;28;20024;-61
2023/09/05 07:47:22;;;;;;;0.00;0.00;;;;;;;29.18;45.45;100483.34;5067068;28;20029;-61
2023/09/05 07:49:47;;;;;;;0.00;0.00;;;;;;;29.28;45.55;100486.88;5070030;28;20032;-61
2023/09/05 07:52:13;;;;;;;0.00;0.00;;;;;;;29.51;44.24;100482.63;5071412;28;20530;-61
2023/09/05 07:54:38;;;;;;;0.00;0.00;;;;;;;29.77;44.68;100489.03;5070253;28;20028;-61
2023/09/05 07:57:04;;;;;;;0.00;0.00;;;;;;;29.89;43.79;100493.22;5070894;28;20032;-61
2023/09/05 07:59:31;;;;;;;0.00;0.00;;;;;;;30.09;43.80;100488.38;5069910;28;20029;-61
2023/09/05 08:01:56;;;;;;;0.00;0.00;;;;;;;30.14;43.80;100492.34;5067694;28;20477;-61
2023/09/05 08:04:22;;;;;;;0.00;0.00;;;;;;;30.33;43.32;100497.63;5066061;28;20089;-61
2023/09/05 08:06:48;;;;;;;0.00;0.00;;;;;;;30.41;43.29;100503.16;5069749;28;20025;-60
2023/09/05 08:09:14;;;;;;;0.00;0.00;;;;;;;30.46;42.96;100492.53;5078448;28;20109;-60
2023/09/05 08:11:39;;;;;;;0.00;0.00;;;;;;;30.37;43.12;100496.28;5070964;28;20036;-61
2023/09/05 08:14:05;;;;;;;0.00;0.00;;;;;;;30.56;43.83;100496.00;5086585;28;20027;-61
2023/09/05 08:16:31;;;;;;;0.00;0.00;;;;;;;30.69;43.05;100490.06;5091401;28;20031;-61
2023/09/05 08:18:56;;;;;;;0.00;0.00;;;;;;;30.86;42.29;100484.47;5089821;28;20020;-60
2023/09/05 08:21:21;;;;;;;0.00;0.00;;;;;;;30.84;41.08;100486.53;5087807;28;20024;-60
2023/09/05 08:23:50;;;;;;;0.00;0.00;;;;;;;30.93;42.46;100487.41;5070604;28;20103;-61
2023/09/05 08:26:16;;;;;;;0.00;0.00;;;;;;;31.25;41.34;100500.34;5089364;28;20472;-61
2023/09/05 08:28:44;;;;;;;0.00;0.00;;;;;;;31.47;41.26;100494.19;5088390;28;20111;-61
2023/09/05 08:31:13;;;;;;;0.00;0.00;;;;;;;31.65;40.46;100500.38;5089340;28;20032;-61
2023/09/05 08:33:39;;;;;;;0.00;0.00;;;;;;;31.78;40.67;100501.56;5088430;28;20047;-61
2023/09/05 08:36:05;;;;;;;0.00;0.00;;;;;;;32.05;40.08;100503.13;5089489;28;20115;-61
2023/09/05 08:38:30;;;;;;;0.00;0.00;;;;;;;32.10;40.16;100493.31;5090620;28;20103;-61
2023/09/05 08:41:00;;;;;;;0.00;0.00;;;;;;;32.30;40.06;100496.50;5089447;28;20095;-62
2023/09/05 08:43:26;;;;;;;0.00;0.00;;;;;;;32.48;40.17;100502.69;5089915;28;20533;-61
2023/09/05 08:45:53;;;;;;;0.00;0.00;;;;;;;32.54;39.60;100490.94;5072989;28;20020;-62
2023/09/05 08:48:19;;;;;;;0.00;0.00;;;;;;;32.55;40.71;100486.28;5068884;28;20337;-61
2023/09/05 08:50:44;;;;;;;0.00;0.00;;;;;;;32.77;40.01;100480.00;5088076;28;20085;-62
2023/09/05 08:53:14;;;;;;;0.00;0.00;;;;;;;33.05;39.23;100483.97;5077759;28;20028;-62
2023/09/05 08:55:41;;;;;;;0.00;0.00;;;;;;;33.18;38.71;100482.31;5072930;28;20060;-61
2023/09/05 08:58:11;;;;;;;0.00;0.00;;;;;;;33.41;38.72;100478.72;5078685;28;20455;-61
2023/09/05 09:00:37;;;;;;;0.00;0.00;;;;;;;33.26;38.31;100471.22;5086143;28;20020;-61
2023/09/05 09:03:05;;;;;;;0.00;0.00;;;;;;;33.46;38.80;100466.09;5087683;28;20375;-61
2023/09/05 09:05:30;;;;;;;0.00;0.00;;;;;;;33.44;38.37;100464.56;5086184;28;20035;-61
2023/09/05 09:07:57;;;;;;;0.00;0.00;;;;;;;33.72;37.77;100471.22;5087486;28;20016;-61
2023/09/05 09:10:23;;;;;;;0.00;0.00;;;;;;;33.89;37.49;100473.63;5084308;28;20028;-62
2023/09/05 09:13:14;;;;;;;0.00;0.00;;;;;;;34.02;37.31;100478.53;5089168;28;20145;-61
2023/09/05 09:15:43;;;;;;;0.00;0.00;;;;;;;33.76;37.29;100478.06;5078606;28;20020;-61
2023/09/05 09:18:20;;;;;;;0.00;0.00;;;;;;;33.78;37.36;100495.31;5089980;28;20456;-61
2023/09/05 09:20:46;;;;;;;0.00;0.00;;;;;;;33.93;38.56;100490.69;5089763;28;20028;-61
2023/09/05 09:23:13;;;;;;;0.00;0.00;;;;;;;33.93;37.51;100487.94;5083885;28;20030;-60
2023/09/05 09:25:48;;;;;;;0.00;0.00;;;;;;;34.06;36.53;100493.66;5087966;28;20024;-62
2023/09/05 09:28:23;;;;;;;0.00;0.00;;;;;;;34.22;36.55;100493.47;5086325;28;20032;-62
2023/09/05 09:31:03;;;;;;;0.00;0.00;;;;;;;34.11;37.26;100489.31;5073980;28;20028;-61
2023/09/05 09:33:31;;;;;;;0.00;0.00;;;;;;;34.19;37.27;100486.44;5085502;28;20510;-61
2023/09/05 09:36:00;;;;;;;0.00;0.00;;;;;;;34.14;36.26;100482.53;5085853;28;20024;-62
2023/09/05 09:38:26;;;;;;;0.00;0.00;;;;;;;34.37;37.09;100472.25;5088245;28;20245;-61
2023/09/05 09:40:51;;;;;;;0.00;0.00;;;;;;;34.51;37.18;100463.13;5088697;28;20103;-61
2023/09/05 09:43:17;;;;;;;0.00;0.00;;;;;;;34.15;36.12;100465.75;5086435;28;20030;-61
2023/09/05 09:45:42;;;;;;;0.00;0.00;;;;;;;34.25;36.69;100462.75;5089500;28;20024;-61
2023/09/05 09:48:10;;;;;;;0.00;0.00;;;;;;;34.32;36.29;100463.66;5089287;28;20387;-61
2023/09/05 09:50:36;;;;;;;0.00;0.00;;;;;;;34.63;35.70;100457.97;5088112;28;20027;-62
2023/09/05 09:53:04;;;;;;;0.00;0.00;;;;;;;34.67;35.65;100451.84;5087616;28;20132;-61
2023/09/05 09:55:32;;;;;;;0.00;0.00;;;;;;;34.81;36.30;100452.88;5083940;28;20035;-62
2023/09/05 09:58:04;;;;;;;0.00;0.00;;;;;;;34.77;36.37;100449.63;5084696;28;20097;-61
2023/09/05 10:00:32;;;;;;;0.00;0.00;;;;;;;34.63;36.28;100449.66;5066012;28;20032;-61
2023/09/05 10:03:00;;;;;;;0.00;0.00;;;;;;;34.42;36.51;100453.22;5084550;28;20040;-61
2023/09/05 10:05:26;;;;;;;0.00;0.00;;;;;;;34.49;36.94;100443.13;5085923;28;20133;-61
2023/09/05 10:07:53;;;;;;;0.00;0.00;;;;;;;34.75;35.78;100440.66;5085610;28;20468;-62
2023/09/05 10:10:20;;;;;;;0.00;0.00;;;;;;;34.71;35.49;100444.03;5086444;28;20028;-61
2023/09/05 10:12:46;;;;;;;0.00;0.00;;;;;;;34.94;35.83;100440.09;5086049;28;20478;-61
2023/09/05 10:15:13;;;;;;;0.00;0.00;;;;;;;35.03;35.95;100435.25;5087838;28;20028;-61
2023/09/05 10:17:41;;;;;;;0.00;0.00;;;;;;;35.36;35.36;100439.22;5082462;28;20471;-62
2023/09/05 10:20:09;;;;;;;0.00;0.00;;;;;;;35.65;35.98;100442.69;5087052;28;20047;-61
2023/09/05 10:22:43;;;;;;;0.00;0.00;;;;;;;35.66;34.15;100438.91;5086668;28;20028;-62
2023/09/05 10:25:11;;;;;;;0.00;0.00;;;;;;;35.83;35.20;100435.81;5079144;28;20024;-62
2023/09/05 10:27:36;;;;;;;0.00;0.00;;;;;;;35.91;33.84;100436.56;5086830;28;20067;-62
2023/09/05 10:30:02;;;;;;;0.00;0.00;;;;;;;35.78;35.40;100439.19;5087210;28;20027;-62
2023/09/05 10:32:29;;;;;;;0.00;0.00;;;;;;;35.87;34.18;100434.41;5085946;28;20090;-62
2023/09/05 10:34:59;;;;;;;0.00;0.00;;;;;;;35.82;33.48;100434.13;5080984;28;20378;-61
2023/09/05 10:37:33;;;;;;;0.00;0.00;;;;;;;35.57;33.77;100434.53;5068187;28;20571;-61
2023/09/05 10:40:07;;;;;;;0.00;0.00;;;;;;;35.62;35.17;100426.50;5081414;28;20032;-62
2023/09/05 10:42:33;;;;;;;0.00;0.00;;;;;;;35.71;33.58;100424.44;5087503;28;20027;-61
2023/09/05 10:45:15;;;;;;;0.00;0.00;;;;;;;35.48;35.75;100421.91;5078976;28;20535;-61
2023/09/05 10:47:40;;;;;;;0.00;0.00;;;;;;;35.54;34.80;100431.31;5083829;28;20032;-61
2023/09/05 10:50:08;;;;;;;0.00;0.00;;;;;;;35.80;34.04;100429.63;5081645;28;20419;-61
2023/09/05 10:52:34;;;;;;;0.00;0.00;;;;;;;35.57;33.19;100420.69;5083731;28;20042;-62
2023/09/05 10:55:25;;;;;;;0.00;0.00;;;;;;;35.56;34.27;100430.06;5086065;28;20048;-61
2023/09/05 10:57:51;;;;;;;0.00;0.00;;;;;;;35.90;35.67;100422.91;5081521;28;20024;-61
2023/09/05 11:00:17;;;;;;;0.00;0.00;;;;;;;36.14;32.73;100426.03;5079174;28;20027;-62
2023/09/05 11:02:44;;;;;;;0.00;0.00;;;;;;;35.94;34.24;100413.13;5077030;28;20020;-62
2023/09/05 11:05:18;;;;;;;0.00;0.00;;;;;;;35.80;34.88;100413.00;5075720;28;20150;-62
2023/09/05 11:07:51;;;;;;;0.00;0.00;;;;;;;35.98;35.35;100403.34;5085164;28;20107;-62
2023/09/05 11:10:31;;;;;;;0.00;0.00;;;;;;;35.99;34.70;100396.75;5074447;28;20043;-62
2023/09/05 11:13:06;;;;;;;0.00;0.00;;;;;;;36.12;34.35;100399.59;5077969;28;20036;-62
2023/09/05 11:15:36;;;;;;;0.00;0.00;;;;;;;36.27;34.27;100387.31;5077756;28;20060;-61
2023/09/05 11:18:06;;;;;;;0.00;0.00;;;;;;;35.88;32.35;100380.72;5082520;28;20492;-61
2023/09/05 11:20:41;;;;;;;0.00;0.00;;;;;;;35.33;34.19;100379.59;5084263;28;20024;-61